Time;durP1;ratioP1;P1;durP2;ratioP2;P2;SDS_P1;SDS_P2;PMS_P1;PMS_P2;Temp;Humidity;BMP_temperature;BMP_pressure;BME280_temperature;BME280_humidity;BME280_pressure;Samples;Min_cycle;Max_cycle;Signal;HPM_P1;HPM_P2
2023/07/13 00:01:51;;;;;;;2.92;2.00;;;;;;;14.07;64.68;98890.06;5092613;28;20103;-53
2023/07/13 00:04:19;;;;;;;5.20;2.00;;;;;;;14.22;64.07;98895.59;5092630;28;20397;-53
2023/07/13 00:06:46;;;;;;;2.55;2.25;;;;;;;14.14;63.67;98891.06;5091043;28;20051;-54
2023/07/13 00:09:13;;;;;;;5.43;2.10;;;;;;;14.09;64.11;98901.50;5092877;28;20097;-53
2023/07/13 00:11:40;;;;;;;2.45;2.03;;;;;;;14.12;64.80;98908.41;5090477;28;20089;-60
2023/07/13 00:14:06;;;;;;;4.60;2.10;;;;;;;14.11;64.50;98907.56;5092849;28;20071;-54
2023/07/13 00:16:34;;;;;;;3.83;2.10;;;;;;;14.02;64.73;98887.06;5092745;28;20115;-53
2023/07/13 00:19:00;;;;;;;2.58;2.10;;;;;;;14.09;64.99;98904.19;5092903;28;20036;-51
2023/07/13 00:21:26;;;;;;;3.78;1.95;;;;;;;14.07;65.23;98895.44;5092376;28;20119;-51
2023/07/13 00:23:52;;;;;;;3.67;2.33;;;;;;;14.07;65.05;98898.16;5092391;28;20402;-52
2023/07/13 00:26:17;;;;;;;3.38;2.35;;;;;;;14.05;65.27;98894.78;5091116;28;20028;-52
2023/07/13 00:28:43;;;;;;;2.97;2.35;;;;;;;14.06;65.43;98894.59;5091647;28;20039;-52
2023/07/13 00:31:10;;;;;;;4.75;2.40;;;;;;;13.86;65.36;98866.34;5081384;28;20032;-48
2023/07/13 00:33:36;;;;;;;5.22;2.38;;;;;;;14.02;65.50;98893.25;5072684;28;20410;-54
2023/07/13 00:36:03;;;;;;;4.82;2.55;;;;;;;14.04;65.52;98895.78;5072542;28;20033;-56
2023/07/13 00:38:28;;;;;;;3.33;2.38;;;;;;;14.03;65.75;98896.81;5072348;28;20029;-49
2023/07/13 00:40:54;;;;;;;4.75;2.50;;;;;;;14.04;65.70;98890.41;5072134;28;20127;-53
2023/07/13 00:43:22;;;;;;;3.15;2.30;;;;;;;14.04;65.92;98898.47;5073004;28;20052;-52
2023/07/13 00:45:48;;;;;;;3.38;2.60;;;;;;;14.03;65.91;98891.41;5071850;28;20037;-52
2023/07/13 00:48:18;;;;;;;3.30;2.45;;;;;;;13.99;65.68;98879.31;5072171;28;20375;-53
2023/07/13 00:50:48;;;;;;;4.55;2.85;;;;;;;14.07;66.12;98903.53;5072173;28;20364;-49
2023/07/13 00:53:14;;;;;;;3.15;2.67;;;;;;;14.02;66.00;98893.25;5072039;28;20456;-52
2023/07/13 00:55:40;;;;;;;3.80;2.47;;;;;;;14.05;66.28;98892.09;5085093;28;20035;-53
2023/07/13 00:58:06;;;;;;;7.25;2.60;;;;;;;13.99;66.18;98887.41;5092128;28;20047;-52
2023/07/13 01:00:34;;;;;;;2.60;2.17;;;;;;;14.04;66.25;98893.94;5092213;28;20064;-52
2023/07/13 01:03:04;;;;;;;2.90;2.47;;;;;;;14.02;66.41;98887.06;5091948;28;20036;-53
2023/07/13 01:05:31;;;;;;;7.82;2.70;;;;;;;14.02;66.36;98893.25;5091854;28;20032;-49
2023/07/13 01:07:58;;;;;;;3.42;2.58;;;;;;;14.01;66.44;98888.88;5092160;28;20428;-49
2023/07/13 01:10:25;;;;;;;3.35;2.40;;;;;;;13.98;66.39;98880.31;5092083;28;20124;-54
2023/07/13 01:12:51;;;;;;;3.42;2.55;;;;;;;13.98;66.64;98875.78;5091890;28;20111;-49
2023/07/13 01:15:56;;;;;;;6.50;2.47;;;;;;;14.17;66.72;98887.19;5092522;28;20032;-52
2023/07/13 01:18:26;;;;;;;3.03;2.53;;;;;;;14.07;66.39;98879.31;5028475;28;20029;-56
2023/07/13 01:20:55;;;;;;;4.38;2.60;;;;;;;14.06;66.41;98877.63;5029589;28;20044;-52
2023/07/13 01:23:22;;;;;;;6.13;2.80;;;;;;;14.00;66.70;98878.31;5031798;28;20497;-48
2023/07/13 01:25:47;;;;;;;5.05;2.67;;;;;;;14.02;66.80;98887.88;5033828;28;20084;-52
2023/07/13 01:28:13;;;;;;;5.47;2.80;;;;;;;14.05;66.57;98884.00;5033731;28;20025;-61
2023/07/13 01:30:40;;;;;;;4.68;2.65;;;;;;;14.06;66.52;98888.38;5033771;28;20037;-53
2023/07/13 01:33:09;;;;;;;5.57;2.80;;;;;;;14.06;66.84;98883.00;5033676;28;20346;-50
2023/07/13 01:35:36;;;;;;;3.00;2.70;;;;;;;14.07;66.46;98873.91;5031531;28;20055;-51
2023/07/13 01:38:02;;;;;;;4.35;2.60;;;;;;;13.85;66.46;98837.75;5033081;28;20044;-53
2023/07/13 01:40:29;;;;;;;4.75;2.53;;;;;;;14.06;66.67;98877.63;5031595;28;20037;-51
2023/07/13 01:42:55;;;;;;;3.70;2.65;;;;;;;14.08;66.51;98870.22;4994054;28;20046;-52
2023/07/13 01:45:20;;;;;;;5.57;2.65;;;;;;;14.06;66.25;98869.53;4982483;28;20022;-53
2023/07/13 01:47:46;;;;;;;5.60;2.75;;;;;;;13.99;66.59;98855.09;5012782;28;20025;-49
2023/07/13 01:50:30;;;;;;;5.70;2.53;;;;;;;14.07;66.79;98863.16;5072410;28;20080;-53
2023/07/13 01:52:56;;;;;;;6.38;2.80;;;;;;;14.10;66.44;98870.88;5075304;28;20024;-49
2023/07/13 01:55:22;;;;;;;5.78;2.50;;;;;;;14.09;66.44;98866.50;5074694;28;20029;-49
2023/07/13 01:57:48;;;;;;;8.38;2.60;;;;;;;14.10;66.23;98870.88;5092408;28;20073;-54
2023/07/13 02:00:15;;;;;;;3.38;2.55;;;;;;;14.11;66.42;98863.66;5093769;28;20124;-52
2023/07/13 02:02:40;;;;;;;5.82;2.80;;;;;;;14.16;66.43;98870.19;5095654;28;20028;-53
2023/07/13 02:05:06;;;;;;;3.50;2.58;;;;;;;14.17;66.52;98863.78;5095287;28;20043;-55
2023/07/13 02:07:32;;;;;;;2.53;2.20;;;;;;;14.21;66.51;98862.44;5094978;28;20039;-52
2023/07/13 02:09:58;;;;;;;4.93;2.80;;;;;;;14.24;66.17;98852.38;5094724;28;20058;-53
2023/07/13 02:12:23;;;;;;;4.00;2.70;;;;;;;14.12;66.23;98833.88;5095077;28;20028;-54
2023/07/13 02:14:49;;;;;;;4.13;2.88;;;;;;;14.28;66.19;98849.13;5093005;28;20024;-52
2023/07/13 02:17:15;;;;;;;6.65;2.78;;;;;;;14.30;66.00;98860.56;5077453;28;20032;-52
2023/07/13 02:19:41;;;;;;;3.75;2.70;;;;;;;14.35;66.04;98860.06;5074341;28;20088;-50
2023/07/13 02:22:06;;;;;;;4.47;2.42;;;;;;;14.35;65.66;98855.53;5074603;28;20097;-52
2023/07/13 02:24:32;;;;;;;4.47;2.72;;;;;;;14.39;65.89;98858.72;5077839;28;20029;-54
2023/07/13 02:26:57;;;;;;;4.25;2.67;;;;;;;14.44;65.31;98861.72;5094494;28;20471;-54
2023/07/13 02:29:23;;;;;;;5.00;2.70;;;;;;;14.34;65.37;98818.81;5094805;28;20469;-54
2023/07/13 02:31:49;;;;;;;3.28;2.58;;;;;;;14.58;65.12;98843.16;5080706;28;20096;-56
2023/07/13 02:34:14;;;;;;;3.45;2.67;;;;;;;14.67;64.96;98839.41;5073842;28;20123;-55
2023/07/13 02:36:40;;;;;;;4.28;2.63;;;;;;;14.74;64.83;98843.13;5074934;28;20040;-54
2023/07/13 02:39:06;;;;;;;7.45;2.42;;;;;;;14.78;64.58;98844.47;5074170;28;20032;-53
2023/07/13 02:41:32;;;;;;;3.75;2.40;;;;;;;14.81;64.18;98828.97;5074085;28;20058;-53
2023/07/13 02:44:03;;;;;;;4.72;2.60;;;;;;;14.84;64.08;98839.38;5073692;28;20513;-52
2023/07/13 02:46:30;;;;;;;4.13;2.72;;;;;;;14.86;63.81;98843.59;5074036;28;20036;-52
2023/07/13 02:48:56;;;;;;;5.75;2.53;;;;;;;14.87;64.13;98836.34;5078640;28;20069;-52
2023/07/13 02:51:21;;;;;;;3.78;2.45;;;;;;;14.82;64.33;98822.56;5093704;28;20360;-53
2023/07/13 02:53:47;;;;;;;4.57;2.60;;;;;;;14.81;64.34;98826.25;5074445;28;20052;-53
2023/07/13 02:56:12;;;;;;;4.90;2.90;;;;;;;14.91;63.82;98843.91;5073762;28;20071;-51
2023/07/13 02:58:38;;;;;;;4.75;2.65;;;;;;;14.87;64.04;98836.34;5073548;28;20794;-54
2023/07/13 03:01:12;;;;;;;6.07;2.63;;;;;;;15.03;63.94;98840.78;5073733;28;20040;-53
2023/07/13 03:03:37;;;;;;;5.15;2.50;;;;;;;14.95;63.95;98830.91;5073575;28;20052;-49
2023/07/13 03:06:07;;;;;;;4.70;2.50;;;;;;;14.74;63.62;98805.41;5073230;28;20033;-48
2023/07/13 03:08:33;;;;;;;4.10;2.58;;;;;;;14.93;63.91;98824.84;5093199;28;20040;-57
2023/07/13 03:11:03;;;;;;;5.38;2.40;;;;;;;14.96;63.96;98823.66;5094003;28;20043;-47
2023/07/13 03:13:29;;;;;;;5.07;2.63;;;;;;;14.97;64.09;98818.09;5081327;28;20036;-48
2023/07/13 03:15:54;;;;;;;5.10;2.83;;;;;;;14.99;63.82;98823.28;5073148;28;20372;-49
2023/07/13 03:18:20;;;;;;;4.03;2.80;;;;;;;14.95;63.81;98816.59;5073541;28;20044;-54
2023/07/13 03:20:45;;;;;;;5.82;2.63;;;;;;;15.01;63.76;98832.91;5073710;28;20037;-52
2023/07/13 03:23:11;;;;;;;4.55;2.45;;;;;;;15.03;63.56;98841.66;5072882;28;20028;-49
2023/07/13 03:25:37;;;;;;;5.15;2.58;;;;;;;15.02;63.78;98834.56;5072960;28;20067;-49
2023/07/13 03:28:02;;;;;;;3.47;2.47;;;;;;;15.06;63.45;98841.28;5074348;28;20047;-53
2023/07/13 03:30:28;;;;;;;6.60;2.60;;;;;;;14.94;63.57;98821.13;5073154;28;20033;-58
2023/07/13 03:32:53;;;;;;;6.38;2.50;;;;;;;15.12;63.69;98836.19;5072826;28;20036;-51
2023/07/13 03:35:19;;;;;;;3.22;2.40;;;;;;;15.13;63.58;98836.03;5072795;28;20032;-51
2023/07/13 03:37:44;;;;;;;5.43;2.50;;;;;;;15.09;63.36;98839.25;5074121;28;20453;-52
2023/07/13 03:40:10;;;;;;;5.57;3.08;;;;;;;15.18;63.43;98844.41;5072819;28;20901;-49
2023/07/13 03:42:36;;;;;;;5.10;2.75;;;;;;;15.17;63.42;98836.50;5072532;28;20029;-50
2023/07/13 03:45:02;;;;;;;3.03;2.70;;;;;;;15.18;63.53;98838.16;5072702;28;20444;-53
2023/07/13 03:47:29;;;;;;;5.43;2.38;;;;;;;15.24;63.32;98840.19;5072114;28;20430;-50
2023/07/13 03:49:55;;;;;;;3.22;2.60;;;;;;;15.29;63.05;98835.09;5072088;28;20063;-51
2023/07/13 03:52:20;;;;;;;9.20;3.00;;;;;;;15.38;63.10;98848.50;5073911;28;20457;-52
2023/07/13 03:54:46;;;;;;;4.68;2.33;;;;;;;15.23;62.71;98803.44;5071618;28;20064;-49
2023/07/13 03:57:11;;;;;;;3.28;2.47;;;;;;;15.54;62.62;98840.28;5072880;28;20333;-51
2023/07/13 03:59:37;;;;;;;7.03;2.38;;;;;;;15.47;62.18;98809.69;5072900;28;20052;-52
2023/07/13 04:02:04;;;;;;;7.22;2.75;;;;;;;15.76;61.63;98829.66;5080795;28;20032;-53
2023/07/13 04:04:30;;;;;;;5.00;2.53;;;;;;;15.89;61.32;98846.09;5092669;28;20032;-49
2023/07/13 04:06:58;;;;;;;5.65;2.70;;;;;;;16.04;60.96;98848.00;5091132;28;20052;-50
2023/07/13 04:09:24;;;;;;;5.38;2.53;;;;;;;16.12;60.55;98836.28;5052790;28;20036;-51
2023/07/13 04:11:50;;;;;;;4.28;2.50;;;;;;;16.29;60.09;98845.03;5052716;28;20037;-51
2023/07/13 04:14:16;;;;;;;4.82;2.70;;;;;;;16.33;59.65;98836.41;5052363;28;20035;-51
2023/07/13 04:16:42;;;;;;;3.42;2.40;;;;;;;16.42;59.60;98856.06;5052578;28;20040;-49
2023/07/13 04:19:09;;;;;;;8.02;2.67;;;;;;;16.44;59.53;98866.66;5068209;28;20412;-51
2023/07/13 04:21:36;;;;;;;8.82;2.97;;;;;;;16.33;59.71;98846.34;5052308;28;20025;-47
2023/07/13 04:24:03;;;;;;;3.30;2.92;;;;;;;16.36;60.01;98862.19;5072773;28;20047;-51
2023/07/13 04:26:30;;;;;;;6.60;2.40;;;;;;;16.21;59.52;98824.34;5073384;28;20048;-52
2023/07/13 04:28:56;;;;;;;5.75;2.67;;;;;;;16.40;59.68;98844.59;5072172;28;20082;-50
2023/07/13 04:31:22;;;;;;;6.82;2.83;;;;;;;16.42;59.60;98847.94;5072736;28;20024;-49
2023/07/13 04:33:48;;;;;;;3.63;2.72;;;;;;;16.42;59.73;98847.94;5072085;28;20078;-47
2023/07/13 04:36:16;;;;;;;5.80;2.60;;;;;;;16.39;59.49;98850.19;5071193;28;20040;-54
2023/07/13 04:38:41;;;;;;;5.95;2.90;;;;;;;16.41;59.80;98856.22;5072178;28;20039;-48
2023/07/13 04:41:08;;;;;;;3.40;2.55;;;;;;;16.41;59.65;98846.28;5073170;28;20028;-51
2023/07/13 04:43:34;;;;;;;7.32;2.70;;;;;;;16.30;59.79;98835.91;5071816;28;20040;-48
2023/07/13 04:46:05;;;;;;;6.57;2.70;;;;;;;16.32;60.06;98829.31;5071424;28;20402;-52
2023/07/13 04:48:30;;;;;;;4.68;2.72;;;;;;;16.14;60.26;98809.94;5071143;28;20047;-52
2023/07/13 04:50:57;;;;;;;4.13;2.60;;;;;;;16.30;60.12;98833.22;5072981;28;20021;-55
2023/07/13 04:53:23;;;;;;;4.25;2.78;;;;;;;16.30;60.00;98835.91;5057184;28;20029;-50
2023/07/13 04:55:49;;;;;;;6.28;2.67;;;;;;;16.27;60.38;98828.19;5051887;28;20033;-48
2023/07/13 04:58:14;;;;;;;5.43;2.80;;;;;;;16.33;60.20;98839.09;5053665;28;20786;-56
2023/07/13 05:00:40;;;;;;;5.18;3.00;;;;;;;16.38;60.16;98841.22;5055729;28;20037;-53
2023/07/13 05:03:05;;;;;;;5.63;2.80;;;;;;;16.44;59.78;98843.19;5055933;28;20111;-57
2023/07/13 05:05:31;;;;;;;6.78;2.75;;;;;;;16.57;59.64;98847.94;5089502;28;20043;-51
2023/07/13 05:07:57;;;;;;;3.85;2.83;;;;;;;16.63;59.56;98849.03;5076748;28;20048;-55
2023/07/13 05:10:23;;;;;;;4.57;2.63;;;;;;;16.85;58.61;98851.81;5076662;28;20051;-56
2023/07/13 05:12:49;;;;;;;8.15;2.75;;;;;;;17.15;58.09;98849.94;5086280;28;20544;-56
2023/07/13 05:15:15;;;;;;;5.05;2.50;;;;;;;17.49;56.91;98847.56;5077534;28;20032;-55
2023/07/13 05:17:41;;;;;;;7.80;2.72;;;;;;;17.87;55.30;98820.22;5075664;28;20032;-51
2023/07/13 05:20:08;;;;;;;5.00;2.70;;;;;;;18.64;53.67;98857.44;5075590;28;20040;-54
2023/07/13 05:22:35;;;;;;;6.45;2.50;;;;;;;19.19;52.05;98846.63;5074687;28;20051;-51
2023/07/13 05:25:05;;;;;;;4.68;2.50;;;;;;;19.90;50.78;98860.72;5075673;28;20020;-53
2023/07/13 05:27:31;;;;;;;5.88;2.55;;;;;;;20.67;48.62;98845.78;5075203;28;20039;-55
2023/07/13 05:29:57;;;;;;;4.63;2.33;;;;;;;21.61;46.10;98842.63;5075392;28;20021;-53
2023/07/13 05:32:22;;;;;;;5.70;2.78;;;;;;;22.20;44.26;98856.03;5075904;28;20029;-48
2023/07/13 05:34:48;;;;;;;5.35;2.50;;;;;;;22.40;44.04;98845.97;5075946;28;20025;-52
2023/07/13 05:37:13;;;;;;;4.80;2.33;;;;;;;22.42;43.77;98835.66;5075135;28;20437;-53
2023/07/13 05:39:40;;;;;;;6.90;2.65;;;;;;;22.22;43.83;98821.19;5074662;28;20031;-53
2023/07/13 05:42:06;;;;;;;5.40;2.40;;;;;;;22.09;44.13;98807.69;5074933;28;20025;-56
2023/07/13 05:44:31;;;;;;;4.55;2.40;;;;;;;22.26;44.00;98843.38;5075120;28;20086;-51
2023/07/13 05:46:57;;;;;;;3.53;2.25;;;;;;;22.21;43.66;98835.88;5075552;28;20031;-55
2023/07/13 05:49:23;;;;;;;6.70;2.22;;;;;;;22.10;43.79;98835.78;5074364;28;20119;-53
2023/07/13 05:51:48;;;;;;;4.68;2.30;;;;;;;21.94;44.12;98835.28;5075032;28;20036;-53
2023/07/13 05:54:14;;;;;;;3.80;2.15;;;;;;;21.80;44.42;98835.38;5075441;28;20032;-52
2023/07/13 05:56:39;;;;;;;7.35;2.50;;;;;;;21.69;43.98;98838.00;5074612;28;20480;-56
2023/07/13 05:59:05;;;;;;;4.65;2.42;;;;;;;21.45;44.53;98821.38;5074403;28;20029;-55
2023/07/13 06:01:31;;;;;;;8.27;2.50;;;;;;;21.40;45.11;98837.53;5074907;28;20078;-56
2023/07/13 06:03:57;;;;;;;6.07;1.98;;;;;;;21.36;45.19;98837.97;5075184;28;20067;-57
2023/07/13 06:06:22;;;;;;;5.32;2.53;;;;;;;21.53;44.48;98832.00;5074210;28;20123;-56
2023/07/13 06:08:48;;;;;;;4.65;2.22;;;;;;;21.70;43.93;98823.31;5073734;28;20036;-54
2023/07/13 06:11:17;;;;;;;7.72;2.10;;;;;;;22.00;42.81;98834.38;5073879;28;20032;-52
2023/07/13 06:13:43;;;;;;;5.53;2.10;;;;;;;22.18;42.32;98819.94;5074307;28;20036;-51
2023/07/13 06:16:09;;;;;;;6.28;2.30;;;;;;;22.29;41.87;98829.28;5074429;28;20047;-51
2023/07/13 06:18:36;;;;;;;4.60;2.28;;;;;;;22.41;41.42;98825.81;5074187;28;20036;-55
2023/07/13 06:21:16;;;;;;;6.80;2.40;;;;;;;22.60;41.38;98813.06;5074301;28;20090;-52
2023/07/13 06:23:43;;;;;;;4.10;2.15;;;;;;;22.59;40.84;98808.66;5074175;28;20036;-54
2023/07/13 06:26:09;;;;;;;4.35;1.83;;;;;;;22.58;40.71;98816.03;5074388;28;20423;-53
2023/07/13 06:28:35;;;;;;;4.55;1.95;;;;;;;22.60;40.50;98811.16;5074325;28;20035;-52
2023/07/13 06:31:04;;;;;;;7.97;2.08;;;;;;;22.72;40.40;98803.06;5074262;28;20077;-57
2023/07/13 06:33:29;;;;;;;8.63;2.63;;;;;;;22.93;40.19;98803.63;5074493;28;20039;-54
2023/07/13 06:35:55;;;;;;;4.45;1.90;;;;;;;23.27;39.36;98787.66;5073826;28;20344;-56
2023/07/13 06:38:21;;;;;;;3.45;1.95;;;;;;;23.71;38.43;98797.47;5071709;28;20074;-59
2023/07/13 06:40:47;;;;;;;10.63;2.38;;;;;;;24.03;38.03;98783.50;5057885;28;20063;-55
2023/07/13 06:43:13;;;;;;;5.25;2.10;;;;;;;24.19;37.32;98790.16;5070896;28;20040;-54
2023/07/13 06:45:49;;;;;;;5.07;2.00;;;;;;;24.02;36.55;98749.88;5080645;28;20031;-57
2023/07/13 06:48:20;;;;;;;5.70;2.25;;;;;;;24.12;37.12;98814.91;5076049;28;20089;-52
2023/07/13 06:50:47;;;;;;;5.63;2.20;;;;;;;23.58;38.00;98810.28;5090161;28;20036;-55
2023/07/13 06:53:13;;;;;;;4.55;1.83;;;;;;;22.94;38.81;98808.03;5093025;28;20042;-53
2023/07/13 06:55:39;;;;;;;3.47;1.98;;;;;;;22.51;40.36;98813.38;5077779;28;20028;-53
2023/07/13 06:58:06;;;;;;;2.53;1.90;;;;;;;22.06;41.88;98811.72;5084179;28;20028;-54
2023/07/13 07:00:32;;;;;;;4.53;2.00;;;;;;;21.60;42.86;98813.72;5081050;28;20036;-60
2023/07/13 07:02:57;;;;;;;3.67;2.10;;;;;;;21.27;44.01;98816.66;5074272;28;20094;-55
2023/07/13 07:05:23;;;;;;;3.00;1.95;;;;;;;21.01;44.66;98803.00;5074954;28;20047;-55
2023/07/13 07:07:54;;;;;;;4.65;2.17;;;;;;;20.91;44.56;98799.91;5073217;28;20128;-50
2023/07/13 07:10:20;;;;;;;4.18;2.00;;;;;;;20.77;45.24;98807.25;5074300;28;20040;-50
2023/07/13 07:12:46;;;;;;;6.88;2.30;;;;;;;20.68;44.96;98793.06;5073525;28;20584;-53
2023/07/13 07:15:12;;;;;;;6.88;2.60;;;;;;;20.74;45.33;98802.25;5077132;28;20383;-54
2023/07/13 07:17:38;;;;;;;5.95;2.90;;;;;;;20.83;45.46;98792.81;5062274;28;20127;-54
2023/07/13 07:20:04;;;;;;;4.82;2.08;;;;;;;21.04;44.15;98790.84;5082854;28;20107;-50
2023/07/13 07:22:31;;;;;;;7.03;2.55;;;;;;;21.32;42.63;98790.47;5072506;28;20495;-55
2023/07/13 07:24:57;;;;;;;2.83;2.50;;;;;;;21.58;42.10;98802.22;5085263;28;20088;-49
2023/07/13 07:27:23;;;;;;;5.07;2.28;;;;;;;21.65;42.23;98773.06;5091440;28;20492;-51
2023/07/13 07:29:49;;;;;;;5.28;1.90;;;;;;;21.87;40.48;98805.38;5081054;28;20449;-53
2023/07/13 07:32:15;;;;;;;5.78;2.55;;;;;;;21.86;40.61;98814.59;5085726;28;20107;-52
2023/07/13 07:34:41;;;;;;;4.95;2.10;;;;;;;21.76;41.07;98811.56;5076368;28;20147;-54
2023/07/13 07:37:06;;;;;;;5.55;2.20;;;;;;;21.64;41.33;98814.97;5072470;28;20036;-51
2023/07/13 07:39:32;;;;;;;10.75;2.78;;;;;;;21.45;41.65;98816.75;5072315;28;20093;-54
2023/07/13 07:41:58;;;;;;;6.22;2.60;;;;;;;21.18;42.45;98829.69;5064477;28;20031;-58
2023/07/13 07:44:24;;;;;;;5.20;2.50;;;;;;;20.74;42.79;98808.56;5056151;28;20077;-55
2023/07/13 07:46:50;;;;;;;4.18;2.30;;;;;;;20.55;43.87;98801.28;5052783;28;20029;-52
2023/07/13 07:49:15;;;;;;;3.72;2.75;;;;;;;20.61;44.39;98833.06;5061059;28;20024;-56
2023/07/13 07:51:41;;;;;;;6.40;2.42;;;;;;;20.49;45.20;98839.13;5072458;28;20040;-56
2023/07/13 07:54:06;;;;;;;4.90;2.47;;;;;;;20.37;45.56;98838.13;5071440;28;20094;-50
2023/07/13 07:56:32;;;;;;;5.18;2.42;;;;;;;20.18;46.37;98829.81;5073524;28;20024;-53
2023/07/13 07:58:58;;;;;;;5.75;2.53;;;;;;;20.06;46.88;98848.63;5073304;28;20035;-50
2023/07/13 08:01:24;;;;;;;4.53;2.55;;;;;;;19.87;47.28;98833.97;5071872;28;20036;-51
2023/07/13 08:03:50;;;;;;;5.65;2.92;;;;;;;19.74;48.02;98836.69;5072040;28;20048;-50
2023/07/13 08:06:16;;;;;;;4.35;2.45;;;;;;;19.62;49.34;98831.88;5072330;28;20356;-50
2023/07/13 08:08:42;;;;;;;7.55;2.78;;;;;;;19.60;49.52;98822.25;5071836;28;20162;-52
2023/07/13 08:11:08;;;;;;;4.22;2.53;;;;;;;19.58;50.49;98830.63;5058382;28;20033;-51
2023/07/13 08:13:34;;;;;;;4.72;2.42;;;;;;;19.59;50.57;98831.47;5075334;28;20414;-56
2023/07/13 08:16:01;;;;;;;3.92;2.78;;;;;;;19.62;50.62;98833.75;5085621;28;20448;-50
2023/07/13 08:18:29;;;;;;;8.32;3.20;;;;;;;19.75;50.56;98828.34;5080756;28;20028;-50
2023/07/13 08:20:56;;;;;;;9.77;2.88;;;;;;;19.88;49.47;98822.06;5090967;28;20111;-51
2023/07/13 08:23:23;;;;;;;6.53;2.90;;;;;;;19.88;48.70;98827.50;5071956;28;20029;-55
2023/07/13 08:25:52;;;;;;;6.80;2.55;;;;;;;19.82;49.26;98809.34;5071481;28;20487;-51
2023/07/13 08:28:20;;;;;;;6.38;2.72;;;;;;;19.73;49.73;98806.00;5072045;28;20032;-55
2023/07/13 08:30:48;;;;;;;4.90;3.10;;;;;;;19.91;48.80;98827.13;5070591;28;20029;-52
2023/07/13 08:33:23;;;;;;;7.05;3.17;;;;;;;19.98;48.93;98834.41;5073800;28;20039;-53
2023/07/13 08:35:50;;;;;;;6.45;3.13;;;;;;;19.79;48.95;98832.31;5075740;28;20029;-56
2023/07/13 08:38:17;;;;;;;8.27;2.88;;;;;;;19.64;49.63;98827.09;5075668;28;20444;-54
2023/07/13 08:40:43;;;;;;;7.15;2.78;;;;;;;19.53;49.03;98832.28;5075533;28;20036;-57
2023/07/13 08:43:15;;;;;;;2.80;2.30;;;;;;;19.45;49.79;98833.31;5075555;28;20355;-61
2023/07/13 08:45:41;;;;;;;6.82;2.53;;;;;;;19.26;50.50;98827.63;5076667;28;20032;-58
2023/07/13 08:48:22;;;;;;;6.93;2.50;;;;;;;19.42;50.23;98833.72;5075987;28;20440;-57
2023/07/13 08:50:57;;;;;;;7.88;2.80;;;;;;;19.42;50.25;98837.31;5073122;28;20099;-60
2023/07/13 08:53:30;;;;;;;5.88;3.00;;;;;;;19.44;50.57;98856.06;5055536;28;20364;-52
2023/07/13 08:55:59;;;;;;;7.30;3.08;;;;;;;19.40;51.38;98855.63;5083533;28;20372;-52
2023/07/13 08:58:28;;;;;;;8.20;2.80;;;;;;;19.29;51.33;98805.53;5080808;28;20365;-58
2023/07/13 09:01:23;;;;;;;7.82;3.25;;;;;;;19.88;50.87;98857.38;5094092;28;20105;-55
2023/07/13 09:03:55;;;;;;;7.43;2.88;;;;;;;19.98;50.49;98851.56;5055434;28;20041;-57
2023/07/13 09:06:28;;;;;;;6.57;3.13;;;;;;;19.96;51.44;98842.78;5066207;28;20052;-55
2023/07/13 09:09:00;;;;;;;5.45;3.22;;;;;;;20.07;51.51;98849.47;5074373;28;20142;-53
2023/07/13 09:11:41;;;;;;;6.63;3.60;;;;;;;20.01;52.52;98866.59;5076241;28;20380;-58
2023/07/13 09:14:41;;;;;;;8.65;3.00;;;;;;;20.05;52.21;98862.44;5093463;28;20040;-56
2023/07/13 09:17:36;;;;;;;6.82;3.10;;;;;;;20.04;52.60;98852.63;5092433;28;20047;-56
2023/07/13 09:20:19;;;;;;;5.47;3.35;;;;;;;20.07;53.21;98872.03;5071989;28;20032;-57
2023/07/13 09:22:46;;;;;;;7.10;2.92;;;;;;;19.84;52.50;98877.88;5093096;28;20115;-57
2023/07/13 09:25:31;;;;;;;5.05;3.13;;;;;;;19.84;53.79;98868.88;5088124;28;20044;-58
2023/07/13 09:28:09;;;;;;;6.68;3.35;;;;;;;19.72;54.28;98868.66;5080111;28;20119;-59
2023/07/13 09:31:03;;;;;;;5.47;3.55;;;;;;;19.83;54.01;98878.06;5073987;28;20472;-61
2023/07/13 09:33:30;;;;;;;6.55;3.60;;;;;;;19.67;54.57;98877.44;5075630;28;20119;-51
2023/07/13 09:35:59;;;;;;;7.65;3.05;;;;;;;19.61;54.98;98870.94;5079917;28;20720;-57
2023/07/13 09:38:28;;;;;;;7.78;3.53;;;;;;;19.36;55.27;98841.66;5090541;28;20020;-53
2023/07/13 09:41:37;;;;;;;6.63;3.00;;;;;;;19.58;56.01;98874.06;5054911;28;20032;-55
2023/07/13 09:44:19;;;;;;;10.77;3.90;;;;;;;19.37;56.39;98864.19;5066683;28;20048;-54
2023/07/13 09:46:55;;;;;;;7.70;3.40;;;;;;;19.19;56.94;98883.78;5073545;28;20052;-53
2023/07/13 09:49:28;;;;;;;6.30;3.50;;;;;;;18.62;57.68;98832.41;5073725;28;20043;-52
2023/07/13 09:52:02;;;;;;;13.00;3.70;;;;;;;18.75;58.54;98872.31;5074466;28;20372;-56
2023/07/13 09:54:28;;;;;;;7.15;3.67;;;;;;;18.59;58.44;98868.03;5076563;28;20036;-55
2023/07/13 09:56:59;;;;;;;8.85;4.15;;;;;;;18.62;58.22;98871.19;5074533;28;20651;-56
2023/07/13 09:59:29;;;;;;;6.82;3.60;;;;;;;18.39;59.17;98836.25;5086432;28;20658;-56
2023/07/13 10:01:54;;;;;;;6.70;3.67;;;;;;;18.47;58.12;98859.63;5093963;28;20039;-55
2023/07/13 10:04:27;;;;;;;9.23;3.95;;;;;;;18.44;58.38;98858.16;5092685;28;20028;-56
2023/07/13 10:07:07;;;;;;;5.32;3.60;;;;;;;18.54;58.36;98878.63;5092737;28;20058;-56
2023/07/13 10:09:32;;;;;;;5.45;3.58;;;;;;;18.37;58.21;98868.13;5085454;28;20036;-54
2023/07/13 10:11:58;;;;;;;7.05;3.35;;;;;;;18.21;58.38;98858.44;5072345;28;20360;-57
2023/07/13 10:14:25;;;;;;;5.65;3.47;;;;;;;18.15;58.72;98870.88;5072314;28;20036;-54
2023/07/13 10:17:01;;;;;;;5.47;3.90;;;;;;;18.15;58.60;98876.31;5054342;28;20039;-56
2023/07/13 10:19:32;;;;;;;6.00;3.05;;;;;;;17.80;58.61;98843.69;5071990;28;20032;-56
2023/07/13 10:22:01;;;;;;;6.40;3.50;;;;;;;17.89;59.18;98882.28;5077646;28;20463;-55
2023/07/13 10:24:31;;;;;;;10.32;3.05;;;;;;;17.83;59.01;98873.06;5072945;28;20111;-58
2023/07/13 10:27:16;;;;;;;5.40;3.30;;;;;;;17.86;60.28;98870.00;5074127;28;20043;-53
2023/07/13 10:30:10;;;;;;;10.75;5.75;;;;;;;17.78;59.86;98880.94;5074285;28;20099;-58
2023/07/13 10:32:36;;;;;;;7.13;4.18;;;;;;;17.64;60.23;98869.16;5034947;28;20056;-56
2023/07/13 10:35:02;;;;;;;9.80;7.70;;;;;;;17.59;61.15;98868.91;5081189;28;20456;-55
2023/07/13 10:37:44;;;;;;;6.38;3.20;;;;;;;17.60;60.39;98873.28;5073543;28;20044;-55
2023/07/13 10:40:24;;;;;;;8.30;4.80;;;;;;;17.46;61.26;98875.84;5086563;28;20400;-57
2023/07/13 10:42:53;;;;;;;7.57;3.80;;;;;;;17.36;61.08;98889.72;5070037;28;20021;-56
2023/07/13 10:45:22;;;;;;;7.13;3.90;;;;;;;17.38;61.59;98884.09;5055546;28;20021;-60
2023/07/13 10:47:53;;;;;;;7.18;4.38;;;;;;;17.38;61.93;98897.63;5073617;28;20028;-64
2023/07/13 10:50:27;;;;;;;7.47;3.83;;;;;;;17.41;62.49;98896.41;5076801;28;20115;-52
2023/07/13 10:53:20;;;;;;;8.35;4.15;;;;;;;17.44;62.55;98891.44;5073531;28;20028;-52
2023/07/13 10:55:52;;;;;;;11.55;4.15;;;;;;;17.41;62.81;98882.88;5072827;28;20478;-54
2023/07/13 10:58:22;;;;;;;6.30;4.20;;;;;;;17.38;63.18;98891.38;5073313;28;20357;-53
2023/07/13 11:00:53;;;;;;;7.13;3.33;;;;;;;17.31;62.93;98891.31;5074551;28;20032;-48
2023/07/13 11:03:21;;;;;;;7.50;4.07;;;;;;;17.08;62.38;98862.53;5063837;28;20131;-53
2023/07/13 11:06:04;;;;;;;8.50;3.72;;;;;;;17.29;63.63;98893.38;5053108;28;20048;-54
2023/07/13 11:08:30;;;;;;;7.43;3.65;;;;;;;17.20;63.25;98890.75;5052838;28;20049;-53
2023/07/13 11:10:56;;;;;;;7.07;3.50;;;;;;;17.12;62.56;98888.16;5074147;28;20040;-54
2023/07/13 11:13:47;;;;;;;11.60;3.70;;;;;;;17.15;63.10;98879.69;5071524;28;20317;-54
2023/07/13 11:16:44;;;;;;;10.18;3.63;;;;;;;17.14;63.29;98877.19;5073056;28;20063;-53
2023/07/13 11:19:15;;;;;;;8.30;3.47;;;;;;;17.06;63.45;98883.53;5071022;28;20087;-52
2023/07/13 11:22:05;;;;;;;6.50;4.13;;;;;;;17.06;62.98;98878.94;5066084;28;20043;-55
2023/07/13 11:24:57;;;;;;;4.90;3.70;;;;;;;17.07;63.49;98880.63;5063203;28;20475;-57
2023/07/13 11:27:37;;;;;;;6.05;3.40;;;;;;;17.03;62.64;98878.50;5072600;28;20075;-60
2023/07/13 11:30:21;;;;;;;5.50;3.15;;;;;;;17.14;63.15;98883.41;5073609;28;20033;-57
2023/07/13 11:32:51;;;;;;;11.15;3.72;;;;;;;17.02;63.63;98872.25;5072513;28;20028;-58
2023/07/13 11:35:26;;;;;;;5.95;3.42;;;;;;;17.08;63.73;98878.75;5070956;28;20028;-58
2023/07/13 11:37:52;;;;;;;6.57;3.85;;;;;;;16.86;62.93;98834.56;5072431;28;20033;-58
2023/07/13 11:40:18;;;;;;;7.40;3.38;;;;;;;17.06;62.79;98873.53;5068819;28;20107;-58
2023/07/13 11:42:45;;;;;;;5.53;3.67;;;;;;;17.10;64.01;98868.59;5071973;28;20435;-59